Friday, November 17, 2017, 4:23 PM EST
Back to Local

KSBY, Salisbury-wicomico Cty Reg

Location: Salisbury, MD, United States Lat: 38.333
Local Time: 4:23 PM EST (21:23 GMT) Lon: -75.5
Time Zone: US/Eastern Elev: 52 ft

Show me the last for .
Show Decoded

2017-11-17 15:54 METAR KSBY 172054Z 30007KT 10SM CLR 09/M01 A3014 RMK AO2 SLP208 T00891011 55001
                 =
2017-11-17 14:54 METAR KSBY 171954Z 32009KT 10SM CLR 11/M01 A3013 RMK AO2 SLP204 T01061011 =
2017-11-17 13:54 METAR KSBY 171854Z 33014G18KT 10SM CLR 11/M01 A3013 RMK AO2 SLP206 T01111011 =
2017-11-17 12:54 METAR KSBY 171754Z 31012G20KT 10SM CLR 11/M01 A3014 RMK AO2 SLP208 T01061011
                 10111 20044 56011 =
2017-11-17 11:54 METAR KSBY 171654Z 30009KT 10SM CLR 11/00 A3014 RMK AO2 SLP208 T01060000 =
2017-11-17 10:54 METAR KSBY 171554Z 32016KT 10SM CLR 09/M01 A3016 RMK AO2 SLP216 T00941006 =
2017-11-17 09:54 METAR KSBY 171454Z 32013G19KT 10SM CLR 09/00 A3017 RMK AO2 SLP219 T00890000
                 50011 =
2017-11-17 08:54 METAR KSBY 171354Z 33011KT 10SM CLR 08/01 A3018 RMK AO2 SLP221 T00780006 =
2017-11-17 07:54 METAR KSBY 171254Z 32010KT 10SM CLR 07/00 A3017 RMK AO2 SLP218 T00670000 =
2017-11-17 06:54 METAR KSBY 171154Z 33007KT 10SM CLR 05/M01 A3014 RMK AO2 SLP208 T00501006 10067
                 20044 51017 =
2017-11-17 05:54 METAR KSBY 171054Z 30008KT 10SM CLR 06/M01 A3012 RMK AO2 SLP201 T00561006 =
2017-11-17 04:54 METAR KSBY 170954Z AUTO 28006KT 10SM CLR 05/00 A3011 RMK AO2 SLP199 T00500000 =
2017-11-17 03:54 METAR KSBY 170854Z AUTO 28009KT 10SM CLR 06/00 A3009 RMK AO2 SLP191 T00610000
                 50006 =
2017-11-17 02:54 METAR KSBY 170754Z AUTO 28007KT 10SM CLR 06/00 A3009 RMK AO2 SLP193 T00560000 =
2017-11-17 01:54 METAR KSBY 170654Z AUTO 29005KT 10SM CLR 06/00 A3009 RMK AO2 SLP191 T00610000 =
2017-11-17 00:54 METAR KSBY 170554Z AUTO 30009KT 10SM CLR 07/M01 A3007 RMK AO2 SLP185 T00671006
                 10111 20061 51011 =
2017-11-16 23:54 METAR KSBY 170454Z AUTO 30008KT 10SM CLR 07/M01 A3007 RMK AO2 SLP183 T00671006
                 401560067 =
2017-11-16 22:54 METAR KSBY 170354Z AUTO 31008KT 10SM CLR 07/M01 A3005 RMK AO2 SLP179 T00721006 =
2017-11-16 21:54 METAR KSBY 170254Z 32012G21KT 10SM CLR 08/00 A3004 RMK AO2 SLP174 T00780000
                 53025 =
2017-11-16 20:54 METAR KSBY 170154Z 33011G20KT 10SM CLR 09/01 A3001 RMK AO2 SLP165 T00890011 =
2017-11-16 19:54 METAR KSBY 170054Z 31012G17KT 10SM CLR 11/02 A2998 RMK AO2 SLP155 T01060017 =
2017-11-16 18:54 METAR KSBY 162354Z 33008G16KT 10SM CLR 11/02 A2997 RMK AO2 SLP149 T01110022
                 10156 20111 53025 =
2017-11-16 17:54 METAR KSBY 162254Z 26004KT 10SM BKN070 12/04 A2994 RMK AO2 SLP139 T01170044 =
2017-11-16 16:54 METAR KSBY 162154Z 26005KT 10SM CLR 12/04 A2990 RMK AO2 SLP128 T01220039 =

Support USWX by starting your Amazon purchase here.